Time;durP1;ratioP1;P1;durP2;ratioP2;P2;SDS_P1;SDS_P2;PMS_P1;PMS_P2;Temp;Humidity;BMP_temperature;BMP_pressure;BME280_temperature;BME280_humidity;BME280_pressure;Samples;Min_cycle;Max_cycle;Signal;HPM_P1;HPM_P2
2021/07/02 00:01:17;;;;;;;7.68;6.03;;;;;;;;;;5123012;27;20152;-46
2021/07/02 00:03:54;;;;;;;8.70;6.53;;;;;;;;;;5129807;27;20131;-45
2021/07/02 00:06:33;;;;;;;10.70;6.00;;;;;;;;;;5130017;27;20143;-45
2021/07/02 00:09:11;;;;;;;7.68;6.20;;;;;;;;;;5129967;27;20560;-44
2021/07/02 00:11:49;;;;;;;6.97;5.80;;;;;;;;;;5127998;27;20155;-53
2021/07/02 00:14:27;;;;;;;8.27;5.97;;;;;;;;;;5130089;27;20143;-50
2021/07/02 00:17:06;;;;;;;7.53;5.95;;;;;;;;;;5130031;27;20132;-50
2021/07/02 00:19:44;;;;;;;7.28;5.85;;;;;;;;;;5128777;27;20150;-50
2021/07/02 00:22:22;;;;;;;7.40;5.57;;;;;;;;;;5127843;27;20132;-47
2021/07/02 00:25:04;;;;;;;9.45;5.63;;;;;;;;;;5130182;27;20128;-46
2021/07/02 00:27:41;;;;;;;9.90;6.30;;;;;;;;;;5068658;28;20802;-47
2021/07/02 00:30:19;;;;;;;8.60;5.13;;;;;;;;;;5067427;28;20920;-48
2021/07/02 00:32:57;;;;;;;6.70;5.47;;;;;;;;;;5055571;28;20440;-46
2021/07/02 00:35:35;;;;;;;9.50;5.40;;;;;;;;;;5068657;28;20457;-47
2021/07/02 00:38:14;;;;;;;6.32;5.40;;;;;;;;;;5068856;28;20412;-44
2021/07/02 00:40:52;;;;;;;7.28;5.95;;;;;;;;;;5066861;28;20462;-46
2021/07/02 00:43:30;;;;;;;8.27;5.22;;;;;;;;;;5068127;28;20412;-47
2021/07/02 00:46:08;;;;;;;7.35;5.38;;;;;;;;;;5068890;28;20399;-45
2021/07/02 00:48:46;;;;;;;6.78;5.10;;;;;;;;;;5068939;28;20853;-52
2021/07/02 00:51:29;;;;;;;7.32;5.00;;;;;;;;;;5050853;28;20917;-51
2021/07/02 00:54:10;;;;;;;8.32;5.80;;;;;;;;;;5051779;28;20425;-47
2021/07/02 00:56:47;;;;;;;5.82;4.78;;;;;;;;;;5068855;28;20400;-45
2021/07/02 00:59:26;;;;;;;6.20;4.85;;;;;;;;;;5068906;28;20476;-49
2021/07/02 01:02:04;;;;;;;7.25;5.32;;;;;;;;;;5058299;28;20976;-45
2021/07/02 01:04:44;;;;;;;7.47;4.90;;;;;;;;;;5069016;28;20403;-48
2021/07/02 01:07:22;;;;;;;7.72;5.28;;;;;;;;;;5068826;28;20418;-45
2021/07/02 01:10:00;;;;;;;6.80;5.32;;;;;;;;;;5066337;28;20426;-45
2021/07/02 01:12:40;;;;;;;7.00;5.40;;;;;;;;;;5067995;28;20408;-50
2021/07/02 01:15:22;;;;;;;9.52;5.50;;;;;;;;;;5068933;28;20403;-50
2021/07/02 01:18:10;;;;;;;7.88;5.93;;;;;;;;;;5068842;28;20415;-53
2021/07/02 01:20:53;;;;;;;8.73;5.25;;;;;;;;;;5053478;28;20431;-46
2021/07/02 01:23:32;;;;;;;6.63;5.35;;;;;;;;;;5065961;28;20434;-50
2021/07/02 01:26:10;;;;;;;7.97;5.55;;;;;;;;;;5109422;27;20818;-47
2021/07/02 01:28:49;;;;;;;6.95;5.10;;;;;;;;;;5068912;28;20419;-46
2021/07/02 01:31:30;;;;;;;6.65;5.22;;;;;;;;;;5068863;28;20898;-47
2021/07/02 01:34:08;;;;;;;7.82;5.28;;;;;;;;;;5129273;27;20392;-48
2021/07/02 01:36:46;;;;;;;7.43;5.50;;;;;;;;;;5109385;27;20405;-44
2021/07/02 01:39:27;;;;;;;7.57;5.75;;;;;;;;;;5069069;28;20408;-47
2021/07/02 01:42:06;;;;;;;7.85;5.90;;;;;;;;;;5053101;28;20486;-48
2021/07/02 01:44:44;;;;;;;7.53;5.60;;;;;;;;;;5109466;27;20420;-48
2021/07/02 01:47:25;;;;;;;8.40;6.07;;;;;;;;;;5068915;28;20404;-49
2021/07/02 01:50:06;;;;;;;7.90;5.97;;;;;;;;;;5067549;28;20420;-47
2021/07/02 01:52:43;;;;;;;8.00;6.22;;;;;;;;;;5066980;28;20962;-50
2021/07/02 01:55:22;;;;;;;8.63;5.80;;;;;;;;;;5069030;28;20411;-46
2021/07/02 01:58:03;;;;;;;8.75;5.78;;;;;;;;;;5068966;28;20418;-47
2021/07/02 02:00:49;;;;;;;8.77;6.60;;;;;;;;;;5069221;28;20893;-51
2021/07/02 02:03:30;;;;;;;8.63;6.45;;;;;;;;;;5053791;28;20565;-47
2021/07/02 02:06:08;;;;;;;7.72;6.10;;;;;;;;;;5068818;28;20802;-48
2021/07/02 02:08:48;;;;;;;7.47;6.30;;;;;;;;;;5048912;28;20409;-50
2021/07/02 02:11:28;;;;;;;10.75;5.80;;;;;;;;;;5097836;27;20934;-47
2021/07/02 02:14:10;;;;;;;10.20;6.10;;;;;;;;;;5068511;28;20411;-56
2021/07/02 02:16:53;;;;;;;8.18;6.20;;;;;;;;;;5069028;28;20873;-46
2021/07/02 02:19:32;;;;;;;9.00;6.57;;;;;;;;;;5067971;28;20407;-49
2021/07/02 02:22:11;;;;;;;10.95;6.70;;;;;;;;;;5067441;28;20422;-53
2021/07/02 02:24:53;;;;;;;8.60;6.93;;;;;;;;;;5069027;28;20404;-47
2021/07/02 02:27:32;;;;;;;9.73;6.88;;;;;;;;;;5068887;28;20960;-49
2021/07/02 02:30:10;;;;;;;7.65;6.43;;;;;;;;;;5067551;28;20419;-47
2021/07/02 02:32:48;;;;;;;7.97;6.30;;;;;;;;;;5066288;28;20446;-53
2021/07/02 02:35:33;;;;;;;10.10;7.10;;;;;;;;;;5109382;27;20397;-49
2021/07/02 02:38:12;;;;;;;8.73;6.78;;;;;;;;;;5068883;28;20408;-48
2021/07/02 02:40:51;;;;;;;7.43;6.47;;;;;;;;;;5063852;28;20428;-50
2021/07/02 02:43:29;;;;;;;8.48;6.72;;;;;;;;;;5088368;27;20430;-49
2021/07/02 02:46:07;;;;;;;9.57;6.95;;;;;;;;;;5068943;28;20457;-45
2021/07/02 02:48:45;;;;;;;10.30;6.78;;;;;;;;;;5101275;27;20414;-45
2021/07/02 02:51:23;;;;;;;9.32;7.35;;;;;;;;;;5068832;28;20919;-45
2021/07/02 02:54:02;;;;;;;8.82;7.25;;;;;;;;;;5066917;28;20473;-48
2021/07/02 02:59:37;;;;;;;10.30;6.65;;;;;;;;;;5068933;28;20147;-51
2021/07/02 03:02:20;;;;;;;11.98;7.30;;;;;;;;;;5066701;28;21143;-47
2021/07/02 03:05:00;;;;;;;9.43;7.32;;;;;;;;;;5068944;28;20465;-47
2021/07/02 03:07:41;;;;;;;9.93;7.30;;;;;;;;;;5068472;28;20816;-48
2021/07/02 03:10:39;;;;;;;10.90;7.50;;;;;;;;;;5064462;28;20838;-49
2021/07/02 03:13:17;;;;;;;8.73;7.00;;;;;;;;;;5067984;28;20969;-46
2021/07/02 03:15:55;;;;;;;9.38;7.22;;;;;;;;;;5068813;28;20412;-47
2021/07/02 03:18:33;;;;;;;12.23;7.85;;;;;;;;;;5056963;28;20421;-49
2021/07/02 03:21:12;;;;;;;9.18;6.97;;;;;;;;;;5063057;28;20440;-46
2021/07/02 03:23:50;;;;;;;8.88;7.45;;;;;;;;;;5107548;27;20958;-53
2021/07/02 03:26:28;;;;;;;11.57;7.47;;;;;;;;;;5068934;28;20408;-51
2021/07/02 03:29:06;;;;;;;10.07;7.55;;;;;;;;;;5068722;28;20403;-53
2021/07/02 03:31:44;;;;;;;9.68;7.78;;;;;;;;;;5071447;28;20431;-50
2021/07/02 03:34:23;;;;;;;10.52;7.90;;;;;;;;;;5109453;27;20397;-47
2021/07/02 03:37:04;;;;;;;8.88;7.03;;;;;;;;;;5068865;28;20423;-46
2021/07/02 03:39:45;;;;;;;15.60;7.95;;;;;;;;;;5056591;28;20475;-49
2021/07/02 03:42:25;;;;;;;10.48;8.00;;;;;;;;;;5068046;28;20847;-52
2021/07/02 03:45:04;;;;;;;9.38;8.02;;;;;;;;;;5068899;28;20419;-48
2021/07/02 03:47:45;;;;;;;10.48;7.72;;;;;;;;;;5068733;28;20903;-49
2021/07/02 03:50:23;;;;;;;10.85;7.78;;;;;;;;;;5129646;27;20430;-48
2021/07/02 03:53:03;;;;;;;11.82;8.40;;;;;;;;;;5060526;28;20433;-45
2021/07/02 03:55:41;;;;;;;12.10;8.50;;;;;;;;;;5068758;28;20404;-49
2021/07/02 03:58:19;;;;;;;13.00;8.30;;;;;;;;;;5068568;28;20916;-50
2021/07/02 04:00:58;;;;;;;9.60;7.60;;;;;;;;;;5120176;27;20428;-48
2021/07/02 04:03:36;;;;;;;11.07;7.93;;;;;;;;;;5067773;28;20786;-46
2021/07/02 04:06:14;;;;;;;11.13;7.53;;;;;;;;;;5068688;28;20418;-50
2021/07/02 04:08:52;;;;;;;10.20;8.40;;;;;;;;;;5068545;28;20411;-50
2021/07/02 04:11:30;;;;;;;11.98;8.73;;;;;;;;;;5109301;27;20413;-47
2021/07/02 04:14:08;;;;;;;10.52;7.78;;;;;;;;;;5067873;28;20411;-49
2021/07/02 04:16:47;;;;;;;12.48;8.55;;;;;;;;;;5069096;28;20407;-48
2021/07/02 04:19:25;;;;;;;11.98;8.73;;;;;;;;;;5056247;28;20428;-45
2021/07/02 04:22:03;;;;;;;9.63;7.78;;;;;;;;;;5067902;28;20799;-45
2021/07/02 04:24:41;;;;;;;9.93;7.95;;;;;;;;;;5068571;28;20419;-48
2021/07/02 04:27:21;;;;;;;10.55;8.00;;;;;;;;;;5068801;28;20408;-48
2021/07/02 04:30:01;;;;;;;11.05;8.57;;;;;;;;;;5068578;28;20415;-48
2021/07/02 04:32:39;;;;;;;13.38;8.77;;;;;;;;;;5059221;28;20425;-46
2021/07/02 04:35:17;;;;;;;12.23;8.95;;;;;;;;;;5068533;28;20416;-48
2021/07/02 04:37:55;;;;;;;10.52;8.07;;;;;;;;;;5069054;28;20411;-48
2021/07/02 04:40:34;;;;;;;10.70;8.30;;;;;;;;;;5079002;28;20406;-48
2021/07/02 04:43:12;;;;;;;11.68;8.65;;;;;;;;;;5067776;28;20403;-48
2021/07/02 04:45:50;;;;;;;14.40;8.00;;;;;;;;;;5067706;28;20412;-48
2021/07/02 04:48:47;;;;;;;11.02;7.68;;;;;;;;;;5068138;28;20208;-49
2021/07/02 04:51:26;;;;;;;10.70;8.40;;;;;;;;;;5063709;28;20434;-47
2021/07/02 04:54:04;;;;;;;10.02;7.63;;;;;;;;;;5055226;28;20433;-49
2021/07/02 04:56:46;;;;;;;11.13;8.48;;;;;;;;;;5068751;28;20404;-50
2021/07/02 04:59:31;;;;;;;10.10;7.82;;;;;;;;;;5089309;28;20399;-45
2021/07/02 05:02:08;;;;;;;11.40;8.48;;;;;;;;;;5104973;27;20433;-48
2021/07/02 05:04:49;;;;;;;10.10;8.00;;;;;;;;;;5068778;28;20400;-46
2021/07/02 05:07:28;;;;;;;10.25;8.25;;;;;;;;;;5109397;27;20400;-49
2021/07/02 05:10:06;;;;;;;12.10;8.05;;;;;;;;;;5068772;28;20446;-50
2021/07/02 05:12:44;;;;;;;11.40;8.40;;;;;;;;;;5059596;28;20443;-50
2021/07/02 05:15:22;;;;;;;10.60;8.15;;;;;;;;;;5129643;27;20399;-50
2021/07/02 05:18:00;;;;;;;9.90;7.97;;;;;;;;;;5069220;28;20415;-49
2021/07/02 05:20:43;;;;;;;10.10;7.85;;;;;;;;;;5056619;28;20432;-51
2021/07/02 05:23:22;;;;;;;9.45;7.47;;;;;;;;;;5062111;28;20438;-46
2021/07/02 05:26:00;;;;;;;9.00;7.65;;;;;;;;;;5068226;28;20857;-47
2021/07/02 05:28:38;;;;;;;10.70;8.10;;;;;;;;;;5057652;28;20421;-47
2021/07/02 05:31:16;;;;;;;10.55;7.18;;;;;;;;;;5058324;27;20440;-48
2021/07/02 05:33:54;;;;;;;10.25;7.50;;;;;;;;;;5068823;28;20406;-48
2021/07/02 05:36:32;;;;;;;9.07;7.65;;;;;;;;;;5068916;28;20403;-48
2021/07/02 05:39:11;;;;;;;13.88;9.30;;;;;;;;;;5068499;28;20469;-53
2021/07/02 05:41:49;;;;;;;13.95;9.82;;;;;;;;;;5065496;28;20451;-56
2021/07/02 05:44:27;;;;;;;11.10;8.48;;;;;;;;;;5066952;28;20432;-51
2021/07/02 05:47:05;;;;;;;10.85;8.05;;;;;;;;;;5067954;28;20427;-50
2021/07/02 05:49:43;;;;;;;10.40;7.97;;;;;;;;;;5065381;28;20446;-53
2021/07/02 05:52:22;;;;;;;13.68;8.30;;;;;;;;;;5086079;27;20409;-49
2021/07/02 05:55:03;;;;;;;10.20;8.05;;;;;;;;;;5068469;28;20415;-49
2021/07/02 05:57:41;;;;;;;10.32;8.07;;;;;;;;;;5068237;28;20426;-54
2021/07/02 06:00:20;;;;;;;9.63;7.85;;;;;;;;;;5129643;27;20411;-51
2021/07/02 06:02:58;;;;;;;9.20;7.50;;;;;;;;;;5040430;28;20432;-53
2021/07/02 06:05:36;;;;;;;11.15;7.95;;;;;;;;;;5109216;27;20480;-55
2021/07/02 06:08:15;;;;;;;13.55;7.68;;;;;;;;;;5068341;28;20489;-54
2021/07/02 06:10:52;;;;;;;9.50;7.32;;;;;;;;;;5068373;28;20420;-51
2021/07/02 06:13:31;;;;;;;11.75;7.20;;;;;;;;;;5104479;27;20417;-54
2021/07/02 06:16:09;;;;;;;8.65;7.57;;;;;;;;;;5069055;28;20798;-54
2021/07/02 06:18:47;;;;;;;9.75;7.57;;;;;;;;;;5069046;28;20889;-52
2021/07/02 06:21:25;;;;;;;11.15;8.05;;;;;;;;;;5059594;28;20432;-57
2021/07/02 06:24:03;;;;;;;10.50;7.82;;;;;;;;;;5052739;28;20429;-57
2021/07/02 06:26:42;;;;;;;11.48;7.47;;;;;;;;;;5068754;28;20411;-55
2021/07/02 06:29:20;;;;;;;12.32;10.13;;;;;;;;;;5068831;28;20414;-55
2021/07/02 06:31:58;;;;;;;10.07;8.05;;;;;;;;;;5067282;28;20431;-52
2021/07/02 06:34:36;;;;;;;11.05;6.72;;;;;;;;;;5068890;28;20415;-53
2021/07/02 06:37:14;;;;;;;8.75;6.45;;;;;;;;;;5068872;28;20430;-51
2021/07/02 06:39:52;;;;;;;11.68;7.18;;;;;;;;;;5068909;28;20806;-51
2021/07/02 06:42:31;;;;;;;10.15;7.18;;;;;;;;;;5068534;28;20450;-53
2021/07/02 06:45:11;;;;;;;8.90;6.45;;;;;;;;;;5068882;28;20434;-51
2021/07/02 06:47:50;;;;;;;13.18;6.45;;;;;;;;;;5068803;28;20414;-51
2021/07/02 06:50:31;;;;;;;9.80;6.15;;;;;;;;;;5095400;27;20418;-49
2021/07/02 06:53:08;;;;;;;8.90;6.10;;;;;;;;;;5060599;28;20428;-55
2021/07/02 06:55:46;;;;;;;11.40;7.05;;;;;;;;;;5069255;27;20403;-51
2021/07/02 06:58:25;;;;;;;9.13;6.32;;;;;;;;;;5068943;28;20407;-53
2021/07/02 07:01:03;;;;;;;9.20;7.22;;;;;;;;;;5059501;28;20441;-54
2021/07/02 07:03:41;;;;;;;9.23;6.15;;;;;;;;;;5068478;28;20889;-54
2021/07/02 07:06:19;;;;;;;8.38;6.00;;;;;;;;;;5069067;28;20434;-52
2021/07/02 07:08:57;;;;;;;8.73;5.15;;;;;;;;;;5143112;27;20953;-51
2021/07/02 07:11:36;;;;;;;8.50;5.93;;;;;;;;;;5069291;28;20418;-52
2021/07/02 07:14:14;;;;;;;10.30;6.40;;;;;;;;;;5068934;28;20399;-49
2021/07/02 07:16:52;;;;;;;8.77;6.00;;;;;;;;;;5069212;28;20407;-54
2021/07/02 07:19:30;;;;;;;7.28;5.65;;;;;;;;;;5050647;28;20417;-54
2021/07/02 07:22:09;;;;;;;7.95;5.35;;;;;;;;;;5067976;28;20414;-52
2021/07/02 07:24:47;;;;;;;8.07;5.93;;;;;;;;;;5048890;28;20471;-50
2021/07/02 07:27:26;;;;;;;9.40;7.30;;;;;;;;;;5144701;27;20134;-48
2021/07/02 07:30:05;;;;;;;10.57;7.35;;;;;;;;;;5144085;27;20130;-48
2021/07/02 07:32:46;;;;;;;9.05;5.60;;;;;;;;;;5108114;27;20416;-48
2021/07/02 07:35:26;;;;;;;8.50;6.22;;;;;;;;;;5069324;28;20411;-47
2021/07/02 07:38:04;;;;;;;7.97;5.97;;;;;;;;;;5109846;27;20919;-46
2021/07/02 07:40:42;;;;;;;8.60;6.38;;;;;;;;;;5068864;28;20422;-48
2021/07/02 07:43:22;;;;;;;8.63;5.43;;;;;;;;;;5069138;28;20415;-47
2021/07/02 07:46:01;;;;;;;6.85;4.90;;;;;;;;;;5069447;28;20414;-49
2021/07/02 07:48:38;;;;;;;10.27;5.65;;;;;;;;;;5066712;28;20407;-49
2021/07/02 07:51:46;;;;;;;7.55;5.28;;;;;;;;;;5069264;28;20426;-47
2021/07/02 07:54:14;;;;;;;6.82;5.13;;;;;;;;;;5067762;28;20166;-51
2021/07/02 07:56:53;;;;;;;7.53;5.28;;;;;;;;;;5069301;28;20872;-45
2021/07/02 07:59:32;;;;;;;7.50;5.25;;;;;;;;;;5109982;27;20400;-48
2021/07/02 08:02:10;;;;;;;7.30;5.88;;;;;;;;;;5057707;28;20440;-48
2021/07/02 08:04:48;;;;;;;8.55;5.30;;;;;;;;;;5069472;28;20407;-48
2021/07/02 08:07:27;;;;;;;6.85;5.60;;;;;;;;;;5069252;28;20399;-49
2021/07/02 08:10:07;;;;;;;8.13;5.35;;;;;;;;;;5069348;28;20415;-48
2021/07/02 08:12:45;;;;;;;9.60;5.80;;;;;;;;;;5031103;28;20827;-51
2021/07/02 08:15:23;;;;;;;9.23;5.72;;;;;;;;;;5069327;28;20461;-48
2021/07/02 08:18:01;;;;;;;7.68;5.85;;;;;;;;;;5069422;28;20411;-49
2021/07/02 08:20:39;;;;;;;7.05;5.40;;;;;;;;;;5055341;28;20439;-47
2021/07/02 08:23:17;;;;;;;7.78;5.45;;;;;;;;;;5099831;27;20414;-47
2021/07/02 08:25:56;;;;;;;8.00;5.72;;;;;;;;;;5069302;28;20407;-48
2021/07/02 08:31:19;;;;;;;7.25;5.47;;;;;;;;;;5062793;28;20432;-51
2021/07/02 08:33:57;;;;;;;8.85;5.88;;;;;;;;;;5068870;28;20411;-50
2021/07/02 08:36:35;;;;;;;8.20;5.43;;;;;;;;;;5069371;28;20408;-51
2021/07/02 08:39:13;;;;;;;8.93;5.35;;;;;;;;;;5068448;28;20430;-54
2021/07/02 08:41:51;;;;;;;11.43;5.45;;;;;;;;;;5065352;28;20447;-50
2021/07/02 08:44:30;;;;;;;9.05;6.13;;;;;;;;;;5069239;28;20786;-51
2021/07/02 08:47:08;;;;;;;8.48;5.47;;;;;;;;;;5130333;27;20904;-51
2021/07/02 08:49:47;;;;;;;7.63;4.95;;;;;;;;;;5076407;27;20416;-50
2021/07/02 08:52:24;;;;;;;9.93;5.60;;;;;;;;;;5095925;27;20429;-51
2021/07/02 08:55:06;;;;;;;7.10;5.43;;;;;;;;;;5069370;28;20411;-55
2021/07/02 08:57:44;;;;;;;9.20;6.05;;;;;;;;;;5069395;28;20404;-51
2021/07/02 09:00:22;;;;;;;7.82;5.10;;;;;;;;;;5130414;27;20402;-52
2021/07/02 09:03:20;;;;;;;7.55;5.90;;;;;;;;;;5060238;28;20428;-50
2021/07/02 09:06:11;;;;;;;7.95;5.50;;;;;;;;;;5091537;22;20164;-45
2021/07/02 09:08:59;;;;;;;7.00;5.30;;;;;;;;;;5061461;28;20867;-51
2021/07/02 09:11:37;;;;;;;8.07;5.82;;;;;;;;;;5129224;27;20139;-54
2021/07/02 09:14:22;;;;;;;7.60;5.38;;;;;;;;;;5125892;27;20135;-50
2021/07/02 09:17:11;;;;;;;8.30;5.95;;;;;;;;;;5068432;28;20473;-49
2021/07/02 09:20:04;;;;;;;7.43;5.18;;;;;;;;;;5134822;27;20135;-52
2021/07/02 09:22:44;;;;;;;7.40;4.93;;;;;;;;;;5065315;28;21088;-49
2021/07/02 09:25:38;;;;;;;7.03;5.10;;;;;;;;;;5065790;28;20465;-52
2021/07/02 09:28:16;;;;;;;7.45;4.85;;;;;;;;;;5068298;28;20408;-51
2021/07/02 09:30:55;;;;;;;6.07;4.80;;;;;;;;;;5060099;28;20487;-54
2021/07/02 09:33:35;;;;;;;7.05;4.88;;;;;;;;;;5170784;27;20930;-54
2021/07/02 09:36:17;;;;;;;6.45;4.50;;;;;;;;;;5069595;28;20407;-52
2021/07/02 09:38:54;;;;;;;8.70;5.10;;;;;;;;;;5069354;28;20430;-51
2021/07/02 09:41:33;;;;;;;6.53;4.78;;;;;;;;;;5052326;28;20420;-52
2021/07/02 09:44:11;;;;;;;7.03;5.05;;;;;;;;;;5072903;28;20888;-54
2021/07/02 09:46:49;;;;;;;7.28;5.13;;;;;;;;;;5109272;27;20405;-56
2021/07/02 09:49:23;;;;;;;8.90;5.18;;;;;;;;;;5111623;28;20069;-55
2021/07/02 09:51:49;;;;;;;7.30;5.32;;;;;;;;;;5119449;28;20131;-52
2021/07/02 09:54:16;;;;;;;7.68;5.00;;;;;;;;;;5093893;28;20052;-53
2021/07/02 09:56:43;;;;;;;6.90;4.38;;;;;;;;;;5070486;28;20062;-50
2021/07/02 09:59:16;;;;;;;6.05;4.45;;;;;;;;;;5087385;28;20045;-51
2021/07/02 10:01:45;;;;;;;6.80;4.88;;;;;;;;;;5103819;28;20039;-50
2021/07/02 10:04:12;;;;;;;6.18;4.55;;;;;;;;;;5112056;28;20059;-50
2021/07/02 10:06:39;;;;;;;6.00;5.13;;;;;;;;;;5093694;28;20079;-46
2021/07/02 10:09:06;;;;;;;5.78;4.70;;;;;;;;;;5086988;28;20102;-50
2021/07/02 10:11:37;;;;;;;7.55;5.07;;;;;;;;;;5091403;28;20032;-46
2021/07/02 10:14:04;;;;;;;6.38;4.30;;;;;;;;;;5085232;28;20040;-47
2021/07/02 10:16:31;;;;;;;7.15;4.53;;;;;;;;;;5085938;28;20048;-52
2021/07/02 10:19:02;;;;;;;5.95;4.72;;;;;;;;;;5099317;28;20043;-52
2021/07/02 10:21:29;;;;;;;7.82;4.65;;;;;;;;;;5101144;28;20040;-51
2021/07/02 10:24:01;;;;;;;6.50;4.88;;;;;;;;;;5091684;28;20135;-53
2021/07/02 10:26:28;;;;;;;7.47;4.25;;;;;;;;;;5093700;28;20074;-47
2021/07/02 10:28:55;;;;;;;6.07;3.88;;;;;;;;;;5085546;28;20040;-46
2021/07/02 10:31:22;;;;;;;5.60;4.47;;;;;;;;;;5096676;28;20408;-46
2021/07/02 10:33:50;;;;;;;5.18;4.20;;;;;;;;;;5089806;28;20089;-47
2021/07/02 10:36:18;;;;;;;5.30;4.15;;;;;;;;;;5105400;28;20082;-47
2021/07/02 10:38:47;;;;;;;6.63;4.10;;;;;;;;;;5101404;28;20067;-46
2021/07/02 10:41:22;;;;;;;5.10;4.00;;;;;;;;;;5099857;28;20542;-50
2021/07/02 10:44:08;;;;;;;5.38;3.88;;;;;;;;;;5091916;28;20036;-49
2021/07/02 10:46:38;;;;;;;4.90;4.03;;;;;;;;;;5090099;28;20511;-46
2021/07/02 10:49:09;;;;;;;7.75;4.32;;;;;;;;;;5090483;28;20048;-47
2021/07/02 10:51:39;;;;;;;4.97;3.97;;;;;;;;;;5093631;28;20042;-46
2021/07/02 10:54:09;;;;;;;6.47;4.10;;;;;;;;;;5096407;28;20039;-55
2021/07/02 10:56:36;;;;;;;6.18;4.75;;;;;;;;;;5083214;28;20507;-56
2021/07/02 10:59:03;;;;;;;6.03;4.90;;;;;;;;;;5075463;28;20039;-48
2021/07/02 11:01:32;;;;;;;5.93;4.35;;;;;;;;;;5078590;28;20037;-46
2021/07/02 11:04:17;;;;;;;9.40;4.28;;;;;;;;;;5078076;28;20048;-46
2021/07/02 11:06:44;;;;;;;5.90;3.50;;;;;;;;;;5082838;28;20120;-53
2021/07/02 11:09:11;;;;;;;6.28;4.22;;;;;;;;;;5076087;28;20131;-52
2021/07/02 11:11:56;;;;;;;6.70;3.85;;;;;;;;;;5077001;28;20115;-49
2021/07/02 11:14:23;;;;;;;6.05;4.07;;;;;;;;;;5086708;28;20051;-56
2021/07/02 11:17:16;;;;;;;5.85;3.67;;;;;;;;;;5085273;28;20123;-52
2021/07/02 11:19:43;;;;;;;5.72;3.60;;;;;;;;;;5068310;28;20051;-55
2021/07/02 11:22:26;;;;;;;4.63;3.63;;;;;;;;;;5090308;28;20134;-54
2021/07/02 11:25:09;;;;;;;6.95;3.97;;;;;;;;;;5085258;28;20127;-51
2021/07/02 11:27:43;;;;;;;4.60;3.60;;;;;;;;;;5077395;28;20028;-54
2021/07/02 11:30:33;;;;;;;6.60;3.65;;;;;;;;;;5085213;28;20112;-53
2021/07/02 11:33:09;;;;;;;17.13;4.97;;;;;;;;;;5072575;28;20615;-54
2021/07/02 11:35:41;;;;;;;6.93;3.67;;;;;;;;;;5087182;28;20047;-55
2021/07/02 11:38:19;;;;;;;16.63;5.57;;;;;;;;;;5092831;28;20436;-55
2021/07/02 11:40:47;;;;;;;15.75;5.55;;;;;;;;;;5072283;28;20131;-54
2021/07/02 11:43:20;;;;;;;8.32;4.22;;;;;;;;;;5071576;28;20130;-57
2021/07/02 11:45:48;;;;;;;15.38;5.80;;;;;;;;;;5072369;28;20055;-55
2021/07/02 11:48:19;;;;;;;7.45;4.53;;;;;;;;;;5075056;28;20037;-53
2021/07/02 11:51:06;;;;;;;10.20;7.18;;;;;;;;;;5079804;28;20130;-53
2021/07/02 11:53:34;;;;;;;16.33;11.05;;;;;;;;;;5073360;28;20127;-53
2021/07/02 11:56:01;;;;;;;4.95;4.22;;;;;;;;;;5077359;28;20039;-55
2021/07/02 11:58:38;;;;;;;8.40;3.25;;;;;;;;;;5091331;28;20393;-54
2021/07/02 12:01:08;;;;;;;5.20;3.90;;;;;;;;;;5075989;28;20138;-56
2021/07/02 12:03:44;;;;;;;5.63;3.90;;;;;;;;;;5076505;28;20037;-56
2021/07/02 12:06:14;;;;;;;5.10;3.25;;;;;;;;;;5074671;28;20037;-54
2021/07/02 12:08:47;;;;;;;5.85;3.40;;;;;;;;;;5071121;28;20040;-56
2021/07/02 12:11:13;;;;;;;4.07;3.40;;;;;;;;;;5075286;28;20181;-58
2021/07/02 12:13:40;;;;;;;4.90;3.28;;;;;;;;;;5070242;28;20493;-50
2021/07/02 12:16:08;;;;;;;5.43;3.72;;;;;;;;;;5071396;28;20087;-48
2021/07/02 12:18:35;;;;;;;5.35;3.15;;;;;;;;;;5077376;28;20040;-47
2021/07/02 12:21:04;;;;;;;6.78;3.33;;;;;;;;;;5073721;28;20052;-51
2021/07/02 12:23:35;;;;;;;4.35;3.20;;;;;;;;;;5075295;28;20043;-54
2021/07/02 12:26:08;;;;;;;4.82;3.25;;;;;;;;;;5084335;28;20044;-52
2021/07/02 12:29:10;;;;;;;6.40;3.55;;;;;;;;;;5071733;28;20323;-52
2021/07/02 12:31:38;;;;;;;6.78;3.60;;;;;;;;;;5070779;28;20041;-53
2021/07/02 12:34:07;;;;;;;5.20;3.10;;;;;;;;;;5074377;28;20044;-49
2021/07/02 12:36:34;;;;;;;4.40;3.05;;;;;;;;;;5080820;28;20051;-46
2021/07/02 12:39:09;;;;;;;8.52;5.38;;;;;;;;;;5082429;28;20477;-47
2021/07/02 12:41:40;;;;;;;6.50;3.20;;;;;;;;;;5085224;28;20047;-51
2021/07/02 12:44:07;;;;;;;5.80;3.45;;;;;;;;;;5070934;28;20052;-47
2021/07/02 12:46:35;;;;;;;6.22;3.97;;;;;;;;;;5071118;28;20040;-49
2021/07/02 12:49:21;;;;;;;8.73;4.30;;;;;;;;;;5071351;28;20391;-49
2021/07/02 12:54:47;;;;;;;4.60;3.58;;;;;;;;;;5080840;28;20068;-48
2021/07/02 12:57:23;;;;;;;5.43;3.75;;;;;;;;;;5090190;28;20052;-44
2021/07/02 12:59:54;;;;;;;6.35;3.47;;;;;;;;;;5091582;28;20044;-47
2021/07/02 13:02:22;;;;;;;5.63;3.70;;;;;;;;;;5087521;28;20071;-44
2021/07/02 13:04:49;;;;;;;4.90;3.50;;;;;;;;;;5071197;28;20044;-45
2021/07/02 13:07:15;;;;;;;4.70;3.00;;;;;;;;;;5070957;28;20067;-45
2021/07/02 13:09:42;;;;;;;6.40;3.75;;;;;;;;;;5076135;28;20048;-47
2021/07/02 13:12:10;;;;;;;4.50;3.08;;;;;;;;;;5083609;28;20570;-46
2021/07/02 13:14:40;;;;;;;3.17;2.45;;;;;;;;;;5069159;28;20097;-48
2021/07/02 13:17:08;;;;;;;4.35;3.10;;;;;;;;;;5070979;28;20090;-48
2021/07/02 13:19:35;;;;;;;4.22;3.17;;;;;;;;;;5086334;28;20059;-44
2021/07/02 13:22:32;;;;;;;6.47;4.70;;;;;;;;;;5069757;28;20048;-51
2021/07/02 13:25:04;;;;;;;3.33;2.72;;;;;;;;;;5062257;28;20398;-48
2021/07/02 13:27:31;;;;;;;4.20;2.83;;;;;;;;;;5088312;28;20071;-51
2021/07/02 13:30:06;;;;;;;5.13;3.08;;;;;;;;;;5089771;28;20036;-45
2021/07/02 13:32:33;;;;;;;4.82;3.10;;;;;;;;;;5090275;28;20127;-46
2021/07/02 13:35:00;;;;;;;4.18;3.10;;;;;;;;;;5090930;28;20048;-45
2021/07/02 13:37:28;;;;;;;3.53;2.90;;;;;;;;;;5089381;28;20140;-46
2021/07/02 13:39:55;;;;;;;4.88;3.13;;;;;;;;;;5079108;28;20076;-52
2021/07/02 13:42:33;;;;;;;4.15;3.20;;;;;;;;;;5069989;28;20064;-46
2021/07/02 13:45:05;;;;;;;4.25;3.13;;;;;;;;;;5070613;28;20048;-46
2021/07/02 13:47:35;;;;;;;6.90;2.83;;;;;;;;;;5070406;28;20036;-50
2021/07/02 13:50:03;;;;;;;4.45;3.20;;;;;;;;;;5070636;28;20063;-45
2021/07/02 13:52:30;;;;;;;3.92;2.90;;;;;;;;;;5069906;28;20048;-48
2021/07/02 13:54:57;;;;;;;5.10;3.38;;;;;;;;;;5070669;28;20036;-46
2021/07/02 13:57:24;;;;;;;6.05;2.75;;;;;;;;;;5070567;28;20049;-49
2021/07/02 13:59:52;;;;;;;4.00;2.80;;;;;;;;;;5070804;28;20041;-50
2021/07/02 14:02:19;;;;;;;4.18;2.80;;;;;;;;;;5068607;28;20063;-47
2021/07/02 14:04:45;;;;;;;3.90;2.80;;;;;;;;;;5086052;28;20040;-47
2021/07/02 14:07:12;;;;;;;6.22;2.78;;;;;;;;;;5069300;28;20071;-49
2021/07/02 14:09:39;;;;;;;4.28;2.80;;;;;;;;;;5070723;28;20045;-48
2021/07/02 14:12:07;;;;;;;3.65;2.72;;;;;;;;;;5069891;28;20045;-53
2021/07/02 14:14:33;;;;;;;4.03;2.80;;;;;;;;;;5070615;28;20041;-45
2021/07/02 14:17:01;;;;;;;3.60;2.70;;;;;;;;;;5085813;28;20102;-51
2021/07/02 14:19:27;;;;;;;4.28;2.90;;;;;;;;;;5070209;28;20052;-47
2021/07/02 14:21:54;;;;;;;5.03;3.00;;;;;;;;;;5069674;28;20075;-45
2021/07/02 14:24:21;;;;;;;4.70;3.35;;;;;;;;;;5070468;28;20116;-49
2021/07/02 14:26:48;;;;;;;4.28;3.10;;;;;;;;;;5070226;28;20082;-51
2021/07/02 14:29:15;;;;;;;4.03;3.05;;;;;;;;;;5070374;28;20070;-47
2021/07/02 14:31:41;;;;;;;4.28;3.17;;;;;;;;;;5070911;28;20127;-47
2021/07/02 14:34:09;;;;;;;5.00;3.00;;;;;;;;;;5073533;28;20123;-47
2021/07/02 14:36:35;;;;;;;4.47;3.40;;;;;;;;;;5073971;28;20124;-49
2021/07/02 14:39:03;;;;;;;5.40;3.20;;;;;;;;;;5072678;28;20055;-53
2021/07/02 14:41:29;;;;;;;4.07;3.08;;;;;;;;;;5078858;28;20559;-54
2021/07/02 14:43:56;;;;;;;3.90;3.03;;;;;;;;;;5091997;28;20119;-55
2021/07/02 14:46:23;;;;;;;9.15;3.75;;;;;;;;;;5093855;28;20036;-55
2021/07/02 14:48:50;;;;;;;4.85;3.55;;;;;;;;;;5094036;28;20044;-55
2021/07/02 14:51:17;;;;;;;4.60;2.88;;;;;;;;;;5085494;28;20060;-54
2021/07/02 14:53:44;;;;;;;4.22;3.38;;;;;;;;;;5072718;28;20111;-47
2021/07/02 14:56:12;;;;;;;4.82;3.03;;;;;;;;;;5072375;28;20064;-51
2021/07/02 14:58:39;;;;;;;4.40;2.80;;;;;;;;;;5073485;28;20079;-54
2021/07/02 15:01:05;;;;;;;4.85;3.05;;;;;;;;;;5089037;28;20125;-55
2021/07/02 15:03:32;;;;;;;4.30;3.13;;;;;;;;;;5086122;28;20732;-51
2021/07/02 15:05:59;;;;;;;5.13;3.20;;;;;;;;;;5093677;28;20511;-51
2021/07/02 15:08:26;;;;;;;4.30;3.22;;;;;;;;;;4972893;23;20055;-55
2021/07/02 15:10:53;;;;;;;4.70;2.95;;;;;;;;;;4929599;28;20071;-54
2021/07/02 15:13:20;;;;;;;5.70;2.80;;;;;;;;;;4923900;28;20063;-55
2021/07/02 15:15:47;;;;;;;5.95;2.80;;;;;;;;;;4944272;29;20039;-55
2021/07/02 15:18:14;;;;;;;3.90;3.05;;;;;;;;;;4952217;28;20047;-55
2021/07/02 15:20:41;;;;;;;4.90;3.00;;;;;;;;;;4952490;28;20062;-56
2021/07/02 15:23:08;;;;;;;5.15;2.90;;;;;;;;;;4915866;28;20048;-57
2021/07/02 15:25:35;;;;;;;3.50;2.50;;;;;;;;;;4931226;29;20122;-53
2021/07/02 15:28:02;;;;;;;4.88;2.80;;;;;;;;;;4931292;28;20071;-54
2021/07/02 15:30:35;;;;;;;5.18;3.45;;;;;;;;;;4927071;29;20066;-54
2021/07/02 15:33:03;;;;;;;5.75;3.15;;;;;;;;;;4923379;29;20048;-52
2021/07/02 15:35:30;;;;;;;4.25;3.15;;;;;;;;;;4930268;29;20390;-52
2021/07/02 15:37:57;;;;;;;3.65;2.80;;;;;;;;;;4932869;29;20050;-56
2021/07/02 15:40:24;;;;;;;4.47;3.58;;;;;;;;;;4924856;29;20135;-57